createdAt,value
2019-05-20T00:00:39.188Z,10.10
2019-05-20T00:03:05.899Z,11.03
2019-05-20T00:05:32.516Z,10.03
2019-05-20T00:07:59.046Z,9.83
2019-05-20T00:10:25.392Z,10.77
2019-05-20T00:12:51.763Z,10.80
2019-05-20T00:15:18.207Z,10.30
2019-05-20T00:17:44.677Z,9.47
2019-05-20T00:20:11.546Z,9.57
2019-05-20T00:22:37.939Z,10.20
2019-05-20T00:25:04.995Z,10.20
2019-05-20T00:27:31.363Z,10.70
2019-05-20T00:29:57.835Z,11.27
2019-05-20T00:32:40.018Z,11.23
2019-05-20T00:34:52.660Z,11.20
2019-05-20T00:37:19.151Z,11.27
2019-05-20T00:39:45.632Z,11.47
2019-05-20T00:42:12.100Z,10.93
2019-05-20T00:44:38.458Z,11.27
2019-05-20T00:47:04.827Z,11.63
2019-05-20T00:49:31.175Z,9.23
2019-05-20T00:51:57.573Z,10.17
2019-05-20T00:54:24.026Z,11.90
2019-05-20T00:56:50.825Z,11.80
2019-05-20T00:59:17.368Z,11.63
2019-05-20T01:01:43.822Z,11.57
2019-05-20T01:04:10.171Z,13.33
2019-05-20T01:06:36.544Z,12.87
2019-05-20T01:09:04.903Z,11.90
2019-05-20T01:11:31.376Z,12.40
2019-05-20T01:13:57.945Z,11.87
2019-05-20T01:16:24.393Z,12.20
2019-05-20T01:18:50.863Z,12.40
2019-05-20T01:21:17.243Z,13.10
2019-05-20T01:23:43.715Z,12.40
2019-05-20T01:26:10.056Z,12.63
2019-05-20T01:28:36.423Z,12.43
2019-05-20T01:31:02.878Z,11.70
2019-05-20T01:33:29.255Z,12.93
2019-05-20T01:35:55.702Z,12.53
2019-05-20T01:38:22.174Z,13.63
2019-05-20T01:40:48.552Z,12.37
2019-05-20T01:43:15.015Z,13.57
2019-05-20T01:45:41.468Z,13.17
2019-05-20T01:48:07.928Z,13.77
2019-05-20T01:50:34.286Z,14.27
2019-05-20T01:53:03.055Z,13.97
2019-05-20T01:55:29.502Z,14.10
2019-05-20T01:57:55.975Z,13.90
2019-05-20T02:00:22.623Z,14.53
2019-05-20T02:02:49.191Z,15.43
2019-05-20T02:05:15.740Z,14.53
2019-05-20T02:07:42.210Z,15.77
2019-05-20T02:10:09.247Z,16.23
2019-05-20T02:12:35.711Z,15.93
2019-05-20T02:15:05.092Z,16.03
2019-05-20T02:17:31.470Z,16.03
2019-05-20T02:19:57.812Z,15.33
2019-05-20T02:22:24.295Z,15.80
2019-05-20T02:24:50.807Z,15.10
2019-05-20T02:27:17.257Z,17.27
2019-05-20T02:29:43.703Z,16.03
2019-05-20T02:32:10.143Z,15.37
2019-05-20T02:34:36.559Z,15.83
2019-05-20T02:37:03.106Z,16.00
2019-05-20T02:39:29.847Z,16.87
2019-05-20T02:41:56.299Z,16.27
2019-05-20T02:44:22.688Z,15.67
2019-05-20T02:46:49.141Z,15.17
2019-05-20T02:49:15.708Z,15.70
2019-05-20T02:51:42.155Z,17.47
2019-05-20T02:54:08.519Z,16.33
2019-05-20T02:56:34.869Z,15.57
2019-05-20T02:59:01.379Z,16.00
2019-05-20T03:01:27.981Z,17.30
2019-05-20T03:04:09.900Z,17.30
2019-05-20T03:06:22.931Z,16.50
2019-05-20T03:08:49.393Z,14.87
2019-05-20T03:11:15.934Z,15.87
2019-05-20T03:13:42.324Z,17.50
2019-05-20T03:16:08.774Z,16.10
2019-05-20T03:18:35.139Z,15.07
2019-05-20T03:21:01.590Z,13.43
2019-05-20T03:23:28.072Z,14.73
2019-05-20T03:25:54.449Z,14.63
2019-05-20T03:28:21.012Z,15.43
2019-05-20T03:30:47.566Z,15.27
2019-05-20T03:33:14.029Z,16.77
2019-05-20T03:35:40.580Z,18.67
2019-05-20T03:38:06.940Z,17.50
2019-05-20T03:40:33.320Z,18.23
2019-05-20T03:42:59.715Z,17.27
2019-05-20T03:45:26.200Z,15.77
2019-05-20T03:47:52.655Z,15.77
2019-05-20T03:50:19.112Z,16.13
2019-05-20T03:52:45.560Z,16.20
2019-05-20T03:55:12.154Z,16.87
2019-05-20T03:57:38.600Z,16.33
2019-05-20T04:00:05.268Z,16.80
2019-05-20T04:02:31.620Z,17.17
2019-05-20T04:05:02.363Z,16.70
2019-05-20T04:07:26.318Z,15.97
2019-05-20T04:09:52.905Z,18.20
2019-05-20T04:12:19.368Z,16.83
2019-05-20T04:14:45.912Z,18.23
2019-05-20T04:17:12.360Z,18.87
2019-05-20T04:19:38.820Z,17.23
2019-05-20T04:22:05.289Z,20.40
2019-05-20T04:24:31.672Z,18.47
2019-05-20T04:26:58.524Z,19.37
2019-05-20T04:29:25.084Z,19.13
2019-05-20T04:31:51.526Z,18.57
2019-05-20T04:34:17.996Z,16.47
2019-05-20T04:36:44.445Z,17.03
2019-05-20T04:39:11.064Z,15.93
2019-05-20T04:41:37.404Z,15.37
2019-05-20T04:44:04.005Z,15.33
2019-05-20T04:46:30.451Z,19.37
2019-05-20T04:48:57.008Z,19.83
2019-05-20T04:51:23.455Z,20.43
2019-05-20T04:53:49.926Z,20.73
2019-05-20T04:56:16.371Z,17.03
2019-05-20T04:58:42.829Z,17.47
2019-05-20T05:01:09.287Z,17.17
2019-05-20T05:03:35.867Z,16.87
2019-05-20T05:06:02.355Z,17.97
2019-05-20T05:08:28.799Z,17.57
2019-05-20T05:10:55.264Z,18.10
2019-05-20T05:13:22.336Z,17.40
2019-05-20T05:15:48.787Z,18.17
2019-05-20T05:18:15.244Z,18.73
2019-05-20T05:20:41.718Z,16.93
2019-05-20T05:23:08.097Z,15.87
2019-05-20T05:25:34.565Z,14.87
2019-05-20T05:28:01.023Z,18.17
2019-05-20T05:30:27.427Z,15.97
2019-05-20T05:32:53.807Z,14.93
2019-05-20T05:35:20.311Z,16.63
2019-05-20T05:37:47.160Z,13.73
2019-05-20T05:40:14.257Z,15.20
2019-05-20T05:42:40.794Z,14.97
2019-05-20T05:45:07.565Z,13.47
2019-05-20T05:47:33.947Z,12.10
2019-05-20T05:50:00.403Z,13.47
2019-05-20T05:52:26.759Z,12.37
2019-05-20T05:54:53.127Z,11.63
2019-05-20T05:57:19.472Z,13.35
2019-05-20T05:59:45.840Z,12.58
2019-05-20T06:02:12.195Z,11.15
2019-05-20T06:04:38.579Z,10.25
2019-05-20T06:07:04.935Z,10.50
2019-05-20T06:09:31.303Z,10.53
2019-05-20T06:11:57.807Z,9.45
2019-05-20T06:14:24.334Z,9.50
2019-05-20T06:16:50.943Z,9.03
2019-05-20T06:19:17.391Z,7.78
2019-05-20T06:21:43.787Z,8.70
2019-05-20T06:24:10.368Z,8.45
2019-05-20T06:26:36.798Z,8.68
2019-05-20T06:29:03.251Z,8.53
2019-05-20T06:31:29.728Z,8.58
2019-05-20T06:33:56.184Z,8.43
2019-05-20T06:36:27.022Z,8.98
2019-05-20T06:38:53.182Z,10.03
2019-05-20T06:41:19.703Z,9.88
2019-05-20T06:43:46.159Z,8.90
2019-05-20T06:46:12.671Z,8.23
2019-05-20T06:48:41.619Z,8.53
2019-05-20T06:51:08.038Z,8.58
2019-05-20T06:53:34.579Z,8.58
2019-05-20T06:56:01.041Z,8.55
2019-05-20T06:58:27.491Z,9.30
2019-05-20T07:00:53.852Z,8.60
2019-05-20T07:03:20.227Z,8.13
2019-05-20T07:05:46.798Z,8.35
2019-05-20T07:08:13.247Z,8.30
2019-05-20T07:10:41.961Z,8.30
2019-05-20T07:13:08.307Z,8.85
2019-05-20T07:15:34.670Z,7.95
2019-05-20T07:18:01.121Z,8.73
2019-05-20T07:20:27.601Z,8.68
2019-05-20T07:22:56.220Z,8.38
2019-05-20T07:25:22.503Z,8.55
2019-05-20T07:27:49.139Z,9.00
2019-05-20T07:30:15.902Z,9.03
2019-05-20T07:32:42.434Z,8.98
2019-05-20T07:35:09.499Z,7.90
2019-05-20T07:37:35.962Z,8.38
2019-05-20T07:40:03.073Z,9.03
2019-05-20T07:42:29.635Z,8.65
2019-05-20T07:44:56.083Z,9.05
2019-05-20T07:47:22.666Z,9.85
2019-05-20T07:49:49.338Z,7.83
2019-05-20T07:52:16.129Z,8.80
2019-05-20T07:54:43.079Z,8.98
2019-05-20T07:57:10.767Z,8.60
2019-05-20T07:59:38.525Z,9.28
2019-05-20T08:02:05.104Z,8.85
2019-05-20T08:04:31.632Z,9.25
2019-05-20T08:06:58.112Z,9.15
2019-05-20T08:09:24.610Z,9.85
2019-05-20T08:11:51.075Z,9.08
2019-05-20T08:14:17.528Z,9.33
2019-05-20T08:16:44.015Z,10.05
2019-05-20T08:19:10.555Z,9.60
2019-05-20T08:21:37.024Z,9.15
2019-05-20T08:24:03.676Z,9.65
2019-05-20T08:26:30.267Z,9.13
2019-05-20T08:28:56.805Z,9.78
2019-05-20T08:31:23.168Z,9.55
2019-05-20T08:33:49.555Z,10.05
2019-05-20T08:36:16.102Z,8.48
2019-05-20T08:38:42.562Z,10.13
2019-05-20T08:41:09.040Z,10.25
2019-05-20T08:43:35.507Z,9.15
2019-05-20T08:46:02.072Z,8.98
2019-05-20T08:48:28.649Z,9.43
2019-05-20T08:50:55.409Z,9.65
2019-05-20T08:53:21.788Z,10.45
2019-05-20T08:55:48.273Z,10.53
2019-05-20T08:58:16.747Z,10.70
2019-05-20T09:00:43.206Z,11.10
2019-05-20T09:03:09.669Z,11.43
2019-05-20T09:05:36.012Z,10.70
2019-05-20T09:08:03.872Z,10.78
2019-05-20T09:10:30.637Z,11.95
2019-05-20T09:12:58.165Z,12.58
2019-05-20T09:15:24.633Z,11.60
2019-05-20T09:17:51.123Z,11.65
2019-05-20T09:20:17.867Z,11.43
2019-05-20T09:22:44.435Z,12.50
2019-05-20T09:25:11.456Z,12.03
2019-05-20T09:27:37.993Z,12.07
2019-05-20T09:30:05.456Z,12.25
2019-05-20T09:32:32.027Z,12.73
2019-05-20T09:34:58.478Z,13.60
2019-05-20T09:37:25.089Z,13.08
2019-05-20T09:39:51.528Z,13.43
2019-05-20T09:42:18.110Z,13.93
2019-05-20T09:44:44.457Z,13.75
2019-05-20T09:47:10.904Z,14.38
2019-05-20T09:49:37.379Z,14.07
2019-05-20T09:52:03.935Z,15.03
2019-05-20T09:54:30.399Z,13.30
2019-05-20T09:56:56.755Z,14.70
2019-05-20T09:59:23.310Z,14.68
2019-05-20T10:01:50.234Z,14.65
2019-05-20T10:04:16.838Z,12.60
2019-05-20T10:06:43.291Z,13.50
2019-05-20T10:09:09.671Z,12.73
2019-05-20T10:11:36.221Z,12.65
2019-05-20T10:14:02.790Z,14.10
2019-05-20T10:16:29.132Z,12.23
2019-05-20T10:18:55.821Z,11.53
2019-05-20T10:21:22.558Z,10.90
2019-05-20T10:23:48.946Z,11.97
2019-05-20T10:26:15.379Z,11.75
2019-05-20T10:28:46.523Z,12.40
2019-05-20T10:31:10.288Z,11.50
2019-05-20T10:33:37.240Z,11.93
2019-05-20T10:36:03.913Z,11.63
2019-05-20T10:38:30.425Z,12.00
2019-05-20T10:40:56.796Z,12.03
2019-05-20T10:43:23.254Z,12.40
2019-05-20T10:45:49.708Z,12.23
2019-05-20T10:48:16.182Z,11.55
2019-05-20T10:50:42.677Z,10.68
2019-05-20T10:53:09.316Z,10.50
2019-05-20T10:55:35.771Z,10.32
2019-05-20T10:58:02.460Z,10.08
2019-05-20T11:00:28.908Z,10.43
2019-05-20T11:02:55.264Z,8.95
2019-05-20T11:05:21.629Z,10.65
2019-05-20T11:07:48.051Z,9.33
2019-05-20T11:10:15.016Z,9.80
2019-05-20T11:12:41.450Z,9.10
2019-05-20T11:15:08.036Z,9.40
2019-05-20T11:17:36.699Z,10.55
2019-05-20T11:20:04.879Z,10.40
2019-05-20T11:22:31.274Z,10.20
2019-05-20T11:24:57.712Z,10.13
2019-05-20T11:27:24.067Z,10.90
2019-05-20T11:29:50.730Z,10.48
2019-05-20T11:32:17.176Z,9.80
2019-05-20T11:34:44.068Z,10.03
2019-05-20T11:37:10.521Z,10.72
2019-05-20T11:39:37.006Z,9.50
2019-05-20T11:42:03.354Z,10.05
2019-05-20T11:44:29.939Z,9.90
2019-05-20T11:46:56.384Z,10.15
2019-05-20T11:49:22.753Z,10.30
2019-05-20T11:51:49.303Z,9.05
2019-05-20T11:54:15.682Z,9.43
2019-05-20T11:56:42.145Z,9.15
2019-05-20T11:59:08.512Z,8.53
2019-05-20T12:01:35.088Z,9.75
2019-05-20T12:04:01.561Z,9.05
2019-05-20T12:06:28.103Z,9.23
2019-05-20T12:08:54.471Z,9.90
2019-05-20T12:11:21.186Z,9.80
2019-05-20T12:13:47.758Z,9.20
2019-05-20T12:16:14.106Z,9.05
2019-05-20T12:18:40.488Z,10.05
2019-05-20T12:21:07.380Z,9.20
2019-05-20T12:23:33.833Z,9.13
2019-05-20T12:26:00.323Z,8.80
2019-05-20T12:28:26.871Z,8.20
2019-05-20T12:30:54.367Z,9.28
2019-05-20T12:33:20.728Z,8.85
2019-05-20T12:35:47.115Z,7.92
2019-05-20T12:38:13.468Z,8.98
2019-05-20T12:40:40.263Z,9.98
2019-05-20T12:43:06.611Z,8.93
2019-05-20T12:45:32.979Z,9.28
2019-05-20T12:47:59.522Z,9.65
2019-05-20T12:50:25.912Z,9.93
2019-05-20T12:52:52.292Z,9.55
2019-05-20T12:55:18.886Z,10.38
2019-05-20T12:57:45.335Z,10.63
2019-05-20T13:00:12.611Z,10.90
2019-05-20T13:02:39.978Z,11.33
2019-05-20T13:05:06.468Z,11.57
2019-05-20T13:07:33.233Z,10.50
2019-05-20T13:10:02.784Z,12.35
2019-05-20T13:12:28.026Z,11.57
2019-05-20T13:14:54.405Z,11.48
2019-05-20T13:17:20.752Z,12.00
2019-05-20T13:19:47.320Z,11.97
2019-05-20T13:22:13.711Z,10.93
2019-05-20T13:24:40.064Z,10.63
2019-05-20T13:27:09.689Z,11.40
2019-05-20T13:29:36.155Z,12.03
2019-05-20T13:32:02.715Z,12.50
2019-05-20T13:34:29.110Z,13.15
2019-05-20T13:36:55.655Z,13.80
2019-05-20T13:39:22.143Z,13.48
2019-05-20T13:41:48.514Z,13.25
2019-05-20T13:44:14.869Z,11.88
2019-05-20T13:46:41.268Z,12.88
2019-05-20T13:49:07.716Z,13.68
2019-05-20T13:51:37.934Z,13.93
2019-05-20T13:54:02.635Z,13.68
2019-05-20T13:56:29.003Z,13.72
2019-05-20T13:58:55.376Z,14.40
2019-05-20T14:01:21.727Z,14.50
2019-05-20T14:03:48.115Z,14.70
2019-05-20T14:06:14.584Z,14.98
2019-05-20T14:08:41.028Z,15.05
2019-05-20T14:11:07.406Z,15.90
2019-05-20T14:13:33.747Z,15.45
2019-05-20T14:16:00.219Z,14.50
2019-05-20T14:18:26.677Z,15.50
2019-05-20T14:20:53.044Z,14.83
2019-05-20T14:23:19.397Z,15.75
2019-05-20T14:25:45.755Z,15.38
2019-05-20T14:28:12.113Z,14.38
2019-05-20T14:30:38.583Z,13.28
2019-05-20T14:33:04.979Z,14.18
2019-05-20T14:35:31.360Z,13.62
2019-05-20T14:37:57.808Z,12.95
2019-05-20T14:40:24.691Z,13.38
2019-05-20T14:42:51.253Z,14.03
2019-05-20T14:45:17.671Z,14.13
2019-05-20T14:47:44.103Z,13.80
2019-05-20T14:50:10.667Z,13.88
2019-05-20T14:52:37.225Z,15.10
2019-05-20T14:55:04.209Z,14.73
2019-05-20T14:57:30.555Z,15.10
2019-05-20T14:59:57.014Z,16.05
2019-05-20T15:02:23.381Z,17.40
2019-05-20T15:04:50.120Z,23.50
2019-05-20T15:07:29.063Z,21.15
2019-05-20T15:09:44.842Z,21.07
2019-05-20T15:12:11.228Z,22.32
2019-05-20T15:14:37.656Z,19.80
2019-05-20T15:17:04.018Z,21.77
2019-05-20T15:19:30.399Z,23.70
2019-05-20T15:21:56.867Z,24.47
2019-05-20T15:24:23.232Z,24.12
2019-05-20T15:26:49.633Z,24.65
2019-05-20T15:29:27.689Z,25.05
2019-05-20T15:31:44.763Z,25.82
2019-05-20T15:34:11.219Z,28.75
2019-05-20T15:36:37.711Z,26.95
2019-05-20T15:39:04.912Z,23.73
2019-05-20T15:41:31.400Z,20.90
2019-05-20T15:43:58.033Z,18.20
2019-05-20T15:46:24.507Z,16.62
2019-05-20T15:48:50.867Z,15.78
2019-05-20T15:51:17.320Z,14.23
2019-05-20T15:53:43.684Z,13.75
2019-05-20T15:56:10.042Z,14.65
2019-05-20T15:58:36.520Z,15.97
2019-05-20T16:01:03.075Z,16.95
2019-05-20T16:03:29.448Z,14.33
2019-05-20T16:05:59.599Z,15.50
2019-05-20T16:08:24.246Z,8.33
2019-05-20T16:10:50.802Z,10.33
2019-05-20T16:13:17.180Z,9.13
2019-05-20T16:15:43.553Z,6.10
2019-05-20T16:18:10.020Z,7.53
2019-05-20T16:20:36.590Z,7.20
2019-05-20T16:23:02.999Z,6.43
2019-05-20T16:25:29.444Z,6.57
2019-05-20T16:27:55.808Z,6.77
2019-05-20T16:30:22.252Z,7.10
2019-05-20T16:32:48.624Z,5.63
2019-05-20T16:35:15.173Z,6.30
2019-05-20T16:37:41.635Z,6.13
2019-05-20T16:40:08.434Z,5.53
2019-05-20T16:42:34.805Z,5.20
2019-05-20T16:45:01.275Z,5.43
2019-05-20T16:47:27.675Z,5.63
2019-05-20T16:49:54.033Z,5.17
2019-05-20T16:52:20.419Z,5.30
2019-05-20T16:54:46.872Z,5.07
2019-05-20T16:57:14.456Z,7.30
2019-05-20T16:59:40.933Z,6.70
2019-05-20T17:02:07.471Z,6.23
2019-05-20T17:04:33.855Z,5.20
2019-05-20T17:07:00.404Z,6.60
2019-05-20T17:09:27.075Z,5.73
2019-05-20T17:11:53.528Z,7.23
2019-05-20T17:14:19.892Z,7.08
2019-05-20T17:16:46.584Z,5.83
2019-05-20T17:19:13.072Z,5.40
2019-05-20T17:21:39.431Z,5.73
2019-05-20T17:24:05.930Z,5.37
2019-05-20T17:26:32.489Z,5.63
2019-05-20T17:28:58.951Z,4.50
2019-05-20T17:31:26.726Z,5.23
2019-05-20T17:33:53.367Z,5.37
2019-05-20T17:36:19.916Z,5.87
2019-05-20T17:38:46.424Z,5.23
2019-05-20T17:41:12.796Z,5.53
2019-05-20T17:43:39.387Z,5.93
2019-05-20T17:46:05.941Z,5.07
2019-05-20T17:48:32.513Z,5.00
2019-05-20T17:50:58.891Z,5.37
2019-05-20T17:53:25.359Z,5.10
2019-05-20T17:55:51.704Z,5.33
2019-05-20T17:58:18.097Z,5.43
2019-05-20T18:00:44.547Z,5.90
2019-05-20T18:03:10.939Z,5.00
2019-05-20T18:05:37.391Z,5.63
2019-05-20T18:08:04.058Z,6.07
2019-05-20T18:10:30.511Z,6.33
2019-05-20T18:12:56.964Z,5.83
2019-05-20T18:15:23.452Z,5.57
2019-05-20T18:17:49.904Z,5.37
2019-05-20T18:20:16.471Z,5.03
2019-05-20T18:22:42.917Z,4.90
2019-05-20T18:25:09.711Z,5.63
2019-05-20T18:27:36.451Z,5.13
2019-05-20T18:30:04.411Z,5.70
2019-05-20T18:32:30.965Z,5.40
2019-05-20T18:34:57.531Z,5.63
2019-05-20T18:37:24.091Z,5.43
2019-05-20T18:39:50.592Z,6.20
2019-05-20T18:42:16.940Z,5.37
2019-05-20T18:44:43.407Z,5.83
2019-05-20T18:47:09.792Z,5.20
2019-05-20T18:49:36.259Z,5.73
2019-05-20T18:52:02.626Z,5.60
2019-05-20T18:54:29.107Z,5.30
2019-05-20T18:56:55.675Z,5.43
2019-05-20T18:59:22.058Z,5.40
2019-05-20T19:02:03.766Z,5.20
2019-05-20T19:04:16.838Z,5.37
2019-05-20T19:06:43.187Z,5.60
2019-05-20T19:09:09.556Z,5.30
2019-05-20T19:11:36.006Z,5.87
2019-05-20T19:14:02.662Z,5.80
2019-05-20T19:16:29.111Z,6.17
2019-05-20T19:18:55.480Z,7.53
2019-05-20T19:21:21.938Z,7.43
2019-05-20T19:23:48.511Z,7.23
2019-05-20T19:26:24.542Z,7.00
2019-05-20T19:28:43.231Z,7.37
2019-05-20T19:31:09.685Z,7.67
2019-05-20T19:33:37.747Z,7.33
2019-05-20T19:36:04.216Z,7.60
2019-05-20T19:38:34.287Z,7.40
2019-05-20T19:40:58.978Z,7.97
2019-05-20T19:43:25.414Z,8.23
2019-05-20T19:45:51.801Z,8.50
2019-05-20T19:48:18.177Z,8.87
2019-05-20T19:50:44.731Z,8.10
2019-05-20T19:53:11.120Z,8.83
2019-05-20T19:55:37.565Z,9.00
2019-05-20T19:58:03.959Z,9.93
2019-05-20T20:00:30.327Z,9.37
2019-05-20T20:02:56.788Z,9.40
2019-05-20T20:05:23.148Z,8.90
2019-05-20T20:07:49.582Z,10.63
2019-05-20T20:10:16.063Z,9.87
2019-05-20T20:12:42.406Z,10.00
2019-05-20T20:15:10.774Z,10.27
2019-05-20T20:17:37.269Z,9.93
2019-05-20T20:20:04.061Z,9.97
2019-05-20T20:22:30.609Z,10.03
2019-05-20T20:24:57.109Z,8.93
2019-05-20T20:27:23.451Z,9.27
2019-05-20T20:29:49.916Z,9.20
2019-05-20T20:32:16.274Z,8.90
2019-05-20T20:34:42.659Z,8.87
2019-05-20T20:37:09.220Z,8.13
2019-05-20T20:39:35.735Z,7.77
2019-05-20T20:42:02.182Z,7.53
2019-05-20T20:44:28.557Z,6.60
2019-05-20T20:46:55.099Z,7.07
2019-05-20T20:49:21.446Z,7.27
2019-05-20T20:51:47.910Z,5.97
2019-05-20T20:54:14.249Z,5.92
2019-05-20T20:56:40.830Z,6.60
2019-05-20T20:59:07.275Z,6.12
2019-05-20T21:01:33.649Z,7.03
2019-05-20T21:03:59.999Z,6.93
2019-05-20T21:06:26.464Z,6.10
2019-05-20T21:08:52.810Z,7.07
2019-05-20T21:11:19.283Z,6.90
2019-05-20T21:13:45.726Z,7.90
2019-05-20T21:16:12.111Z,7.53
2019-05-20T21:18:38.629Z,8.33
2019-05-20T21:21:05.275Z,9.43
2019-05-20T21:23:31.714Z,8.27
2019-05-20T21:25:58.187Z,9.08
2019-05-20T21:28:24.743Z,9.10
2019-05-20T21:30:51.321Z,10.10
2019-05-20T21:33:17.724Z,9.43
2019-05-20T21:35:45.534Z,9.60
2019-05-20T21:38:14.855Z,9.98
2019-05-20T21:40:41.422Z,10.00
2019-05-20T21:43:07.816Z,10.03
2019-05-20T21:45:34.188Z,9.13
2019-05-20T21:48:00.535Z,8.90
2019-05-20T21:50:26.951Z,9.97
2019-05-20T21:52:53.505Z,9.93
2019-05-20T21:55:20.075Z,10.40
2019-05-20T21:57:46.623Z,9.98
2019-05-20T22:00:15.216Z,10.17
2019-05-20T22:02:41.590Z,9.87
2019-05-20T22:05:08.358Z,9.70
2019-05-20T22:07:34.739Z,9.43
2019-05-20T22:10:01.699Z,9.47
2019-05-20T22:12:28.047Z,10.53
2019-05-20T22:14:54.511Z,10.33
2019-05-20T22:17:20.920Z,9.73
2019-05-20T22:19:47.296Z,10.97
2019-05-20T22:22:15.685Z,10.37
2019-05-20T22:24:42.131Z,11.03
2019-05-20T22:27:08.595Z,11.67
2019-05-20T22:29:35.035Z,11.12
2019-05-20T22:32:01.638Z,12.27
2019-05-20T22:34:28.085Z,11.43
2019-05-20T22:36:54.482Z,12.45
2019-05-20T22:39:20.874Z,12.20
2019-05-20T22:41:47.348Z,11.73
2019-05-20T22:44:13.809Z,12.03
2019-05-20T22:46:40.359Z,13.53
2019-05-20T22:49:06.705Z,13.05
2019-05-20T22:51:33.206Z,13.18
2019-05-20T22:53:59.682Z,12.63
2019-05-20T22:56:26.108Z,14.07
2019-05-20T22:58:52.549Z,12.90
2019-05-20T23:01:19.021Z,13.00
2019-05-20T23:03:56.146Z,12.90
2019-05-20T23:06:14.071Z,12.30
2019-05-20T23:08:40.520Z,12.03
2019-05-20T23:11:06.984Z,12.63
2019-05-20T23:13:33.436Z,13.13
2019-05-20T23:15:59.807Z,12.73
2019-05-20T23:18:26.260Z,13.23
2019-05-20T23:20:52.734Z,13.10
2019-05-20T23:23:19.116Z,13.47
2019-05-20T23:25:45.663Z,12.45
2019-05-20T23:28:12.223Z,13.33
2019-05-20T23:30:38.671Z,13.53
2019-05-20T23:33:05.235Z,13.83
2019-05-20T23:35:31.894Z,14.63
2019-05-20T23:37:58.368Z,13.30
2019-05-20T23:40:24.739Z,14.33
2019-05-20T23:42:51.116Z,13.10
2019-05-20T23:45:17.560Z,14.80
2019-05-20T23:47:44.132Z,13.90
2019-05-20T23:50:10.691Z,14.83
2019-05-20T23:52:37.074Z,14.13
2019-05-20T23:55:04.931Z,14.17
2019-05-20T23:57:31.514Z,15.13
2019-05-20T23:59:58.095Z,13.62
